sensor_id;sensor_type;location;lat;lon;timestamp;P1;durP1;ratioP1;P2;durP2;ratioP2
19525;SDS011;9907;42.676;26.348;2022-11-25T00:01:14;1.50;;;1.40;;
19525;SDS011;9907;42.676;26.348;2022-11-25T00:03:41;1.43;;;1.33;;
19525;SDS011;9907;42.676;26.348;2022-11-25T00:06:12;1.80;;;1.70;;
19525;SDS011;9907;42.676;26.348;2022-11-25T00:08:46;2.37;;;1.70;;
19525;SDS011;9907;42.676;26.348;2022-11-25T00:11:13;1.70;;;1.60;;
19525;SDS011;9907;42.676;26.348;2022-11-25T00:13:41;1.90;;;1.80;;
19525;SDS011;9907;42.676;26.348;2022-11-25T00:16:08;1.73;;;1.63;;
19525;SDS011;9907;42.676;26.348;2022-11-25T00:18:36;1.60;;;1.50;;
19525;SDS011;9907;42.676;26.348;2022-11-25T00:21:09;1.53;;;1.43;;
19525;SDS011;9907;42.676;26.348;2022-11-25T00:23:36;2.03;;;1.87;;
19525;SDS011;9907;42.676;26.348;2022-11-25T00:26:08;1.80;;;1.70;;
19525;SDS011;9907;42.676;26.348;2022-11-25T00:28:35;1.90;;;1.80;;
19525;SDS011;9907;42.676;26.348;2022-11-25T00:31:10;2.57;;;1.70;;
19525;SDS011;9907;42.676;26.348;2022-11-25T00:33:35;1.80;;;1.63;;
19525;SDS011;9907;42.676;26.348;2022-11-25T00:36:03;1.97;;;1.63;;
19525;SDS011;9907;42.676;26.348;2022-11-25T00:38:29;2.37;;;1.73;;
19525;SDS011;9907;42.676;26.348;2022-11-25T00:40:55;2.20;;;2.00;;
19525;SDS011;9907;42.676;26.348;2022-11-25T00:43:39;2.03;;;1.83;;
19525;SDS011;9907;42.676;26.348;2022-11-25T00:46:23;3.73;;;1.60;;
19525;SDS011;9907;42.676;26.348;2022-11-25T00:48:48;1.80;;;1.70;;
19525;SDS011;9907;42.676;26.348;2022-11-25T00:51:14;2.00;;;1.57;;
19525;SDS011;9907;42.676;26.348;2022-11-25T00:53:39;1.40;;;1.30;;
19525;SDS011;9907;42.676;26.348;2022-11-25T00:56:05;1.67;;;1.57;;
19525;SDS011;9907;42.676;26.348;2022-11-25T00:58:40;1.70;;;1.60;;
19525;SDS011;9907;42.676;26.348;2022-11-25T01:01:07;1.80;;;1.70;;
19525;SDS011;9907;42.676;26.348;2022-11-25T01:03:33;1.83;;;1.73;;
19525;SDS011;9907;42.676;26.348;2022-11-25T01:06:01;2.30;;;1.80;;
19525;SDS011;9907;42.676;26.348;2022-11-25T01:08:28;1.90;;;1.80;;
19525;SDS011;9907;42.676;26.348;2022-11-25T01:11:02;1.90;;;1.70;;
19525;SDS011;9907;42.676;26.348;2022-11-25T01:13:32;2.57;;;1.70;;
19525;SDS011;9907;42.676;26.348;2022-11-25T01:16:07;1.80;;;1.60;;
19525;SDS011;9907;42.676;26.348;2022-11-25T01:18:36;2.83;;;2.10;;
19525;SDS011;9907;42.676;26.348;2022-11-25T01:23:36;1.53;;;1.43;;
19525;SDS011;9907;42.676;26.348;2022-11-25T01:26:02;2.30;;;1.90;;
19525;SDS011;9907;42.676;26.348;2022-11-25T01:28:28;1.70;;;1.60;;
19525;SDS011;9907;42.676;26.348;2022-11-25T01:33:48;1.70;;;1.60;;
19525;SDS011;9907;42.676;26.348;2022-11-25T01:36:18;1.70;;;1.60;;
19525;SDS011;9907;42.676;26.348;2022-11-25T01:38:44;2.10;;;1.90;;
19525;SDS011;9907;42.676;26.348;2022-11-25T01:41:13;1.90;;;1.80;;
19525;SDS011;9907;42.676;26.348;2022-11-25T01:43:39;1.80;;;1.70;;
19525;SDS011;9907;42.676;26.348;2022-11-25T01:48:41;1.77;;;1.67;;
19525;SDS011;9907;42.676;26.348;2022-11-25T01:51:16;2.70;;;2.10;;
19525;SDS011;9907;42.676;26.348;2022-11-25T01:53:52;2.00;;;1.63;;
19525;SDS011;9907;42.676;26.348;2022-11-25T01:56:20;2.47;;;1.97;;
19525;SDS011;9907;42.676;26.348;2022-11-25T01:58:46;2.30;;;2.10;;
19525;SDS011;9907;42.676;26.348;2022-11-25T02:01:13;2.30;;;2.10;;
19525;SDS011;9907;42.676;26.348;2022-11-25T02:03:41;2.10;;;1.90;;
19525;SDS011;9907;42.676;26.348;2022-11-25T02:06:16;2.67;;;1.90;;
19525;SDS011;9907;42.676;26.348;2022-11-25T02:08:52;3.00;;;1.87;;
19525;SDS011;9907;42.676;26.348;2022-11-25T02:11:28;2.00;;;1.80;;
19525;SDS011;9907;42.676;26.348;2022-11-25T02:13:56;2.10;;;2.00;;
19525;SDS011;9907;42.676;26.348;2022-11-25T02:16:23;1.80;;;1.70;;
19525;SDS011;9907;42.676;26.348;2022-11-25T02:18:49;2.13;;;1.93;;
19525;SDS011;9907;42.676;26.348;2022-11-25T02:21:19;2.60;;;2.00;;
19525;SDS011;9907;42.676;26.348;2022-11-25T02:26:25;2.23;;;2.03;;
19525;SDS011;9907;42.676;26.348;2022-11-25T02:28:50;2.37;;;2.17;;
19525;SDS011;9907;42.676;26.348;2022-11-25T02:31:20;2.20;;;2.00;;
19525;SDS011;9907;42.676;26.348;2022-11-25T02:33:46;1.73;;;1.63;;
19525;SDS011;9907;42.676;26.348;2022-11-25T02:36:13;2.10;;;2.00;;
19525;SDS011;9907;42.676;26.348;2022-11-25T02:38:52;2.00;;;1.90;;
19525;SDS011;9907;42.676;26.348;2022-11-25T02:44:01;2.40;;;2.20;;
19525;SDS011;9907;42.676;26.348;2022-11-25T02:46:28;2.20;;;2.00;;
19525;SDS011;9907;42.676;26.348;2022-11-25T02:48:55;2.40;;;2.17;;
19525;SDS011;9907;42.676;26.348;2022-11-25T02:51:23;2.50;;;2.30;;
19525;SDS011;9907;42.676;26.348;2022-11-25T02:53:49;1.77;;;1.67;;
19525;SDS011;9907;42.676;26.348;2022-11-25T02:56:15;2.13;;;2.00;;
19525;SDS011;9907;42.676;26.348;2022-11-25T02:58:44;2.00;;;1.90;;
19525;SDS011;9907;42.676;26.348;2022-11-25T03:01:09;2.93;;;1.93;;
19525;SDS011;9907;42.676;26.348;2022-11-25T03:03:35;1.90;;;1.80;;
19525;SDS011;9907;42.676;26.348;2022-11-25T03:06:02;2.20;;;2.00;;
19525;SDS011;9907;42.676;26.348;2022-11-25T03:08:27;3.33;;;2.10;;
19525;SDS011;9907;42.676;26.348;2022-11-25T03:10:53;2.50;;;2.30;;
19525;SDS011;9907;42.676;26.348;2022-11-25T03:13:18;1.70;;;1.60;;
19525;SDS011;9907;42.676;26.348;2022-11-25T03:15:44;3.00;;;1.93;;
19525;SDS011;9907;42.676;26.348;2022-11-25T03:18:10;2.10;;;1.90;;
19525;SDS011;9907;42.676;26.348;2022-11-25T03:20:35;2.17;;;1.90;;
19525;SDS011;9907;42.676;26.348;2022-11-25T03:23:01;2.40;;;2.20;;
19525;SDS011;9907;42.676;26.348;2022-11-25T03:25:28;1.70;;;1.60;;
19525;SDS011;9907;42.676;26.348;2022-11-25T03:27:54;2.20;;;1.87;;
19525;SDS011;9907;42.676;26.348;2022-11-25T03:30:21;2.07;;;1.90;;
19525;SDS011;9907;42.676;26.348;2022-11-25T03:32:48;2.00;;;1.90;;
19525;SDS011;9907;42.676;26.348;2022-11-25T03:35:14;2.40;;;2.13;;
19525;SDS011;9907;42.676;26.348;2022-11-25T03:37:40;2.17;;;1.90;;
19525;SDS011;9907;42.676;26.348;2022-11-25T03:40:06;1.97;;;1.87;;
19525;SDS011;9907;42.676;26.348;2022-11-25T03:42:32;2.30;;;2.10;;
19525;SDS011;9907;42.676;26.348;2022-11-25T03:44:58;2.03;;;1.90;;
19525;SDS011;9907;42.676;26.348;2022-11-25T03:47:23;1.83;;;1.73;;
19525;SDS011;9907;42.676;26.348;2022-11-25T03:49:49;2.47;;;2.00;;
19525;SDS011;9907;42.676;26.348;2022-11-25T03:52:14;2.63;;;2.20;;
19525;SDS011;9907;42.676;26.348;2022-11-25T03:54:40;2.20;;;2.00;;
19525;SDS011;9907;42.676;26.348;2022-11-25T03:57:06;2.13;;;1.93;;
19525;SDS011;9907;42.676;26.348;2022-11-25T03:59:31;2.47;;;2.00;;
19525;SDS011;9907;42.676;26.348;2022-11-25T04:01:56;3.10;;;1.87;;
19525;SDS011;9907;42.676;26.348;2022-11-25T04:04:22;2.40;;;2.20;;
19525;SDS011;9907;42.676;26.348;2022-11-25T04:06:48;2.20;;;2.00;;
19525;SDS011;9907;42.676;26.348;2022-11-25T04:09:13;2.30;;;2.20;;
19525;SDS011;9907;42.676;26.348;2022-11-25T04:11:39;2.57;;;2.20;;
19525;SDS011;9907;42.676;26.348;2022-11-25T04:14:23;2.03;;;1.87;;
19525;SDS011;9907;42.676;26.348;2022-11-25T04:16:49;2.10;;;1.87;;
19525;SDS011;9907;42.676;26.348;2022-11-25T04:19:16;2.90;;;2.43;;
19525;SDS011;9907;42.676;26.348;2022-11-25T04:21:41;2.17;;;1.97;;
19525;SDS011;9907;42.676;26.348;2022-11-25T04:24:07;2.60;;;2.33;;
19525;SDS011;9907;42.676;26.348;2022-11-25T04:26:32;2.30;;;2.10;;
19525;SDS011;9907;42.676;26.348;2022-11-25T04:28:58;2.27;;;2.07;;
19525;SDS011;9907;42.676;26.348;2022-11-25T04:31:23;2.10;;;1.90;;
19525;SDS011;9907;42.676;26.348;2022-11-25T04:33:49;2.93;;;2.33;;
19525;SDS011;9907;42.676;26.348;2022-11-25T04:36:14;2.40;;;2.17;;
19525;SDS011;9907;42.676;26.348;2022-11-25T04:38:39;3.60;;;2.30;;
19525;SDS011;9907;42.676;26.348;2022-11-25T04:41:05;2.93;;;2.07;;
19525;SDS011;9907;42.676;26.348;2022-11-25T04:43:31;2.73;;;2.53;;
19525;SDS011;9907;42.676;26.348;2022-11-25T04:45:57;2.30;;;2.10;;
19525;SDS011;9907;42.676;26.348;2022-11-25T04:48:22;2.50;;;2.30;;
19525;SDS011;9907;42.676;26.348;2022-11-25T04:50:48;2.20;;;2.00;;
19525;SDS011;9907;42.676;26.348;2022-11-25T04:53:14;2.07;;;1.97;;
19525;SDS011;9907;42.676;26.348;2022-11-25T04:55:39;2.63;;;2.10;;
19525;SDS011;9907;42.676;26.348;2022-11-25T04:58:05;2.50;;;2.30;;
19525;SDS011;9907;42.676;26.348;2022-11-25T05:00:30;3.23;;;2.50;;
19525;SDS011;9907;42.676;26.348;2022-11-25T05:02:56;2.47;;;2.27;;
19525;SDS011;9907;42.676;26.348;2022-11-25T05:05:21;3.77;;;2.20;;
19525;SDS011;9907;42.676;26.348;2022-11-25T05:07:46;2.30;;;2.10;;
19525;SDS011;9907;42.676;26.348;2022-11-25T05:10:12;3.03;;;2.50;;
19525;SDS011;9907;42.676;26.348;2022-11-25T05:12:38;2.83;;;2.30;;
19525;SDS011;9907;42.676;26.348;2022-11-25T05:15:04;2.80;;;2.30;;
19525;SDS011;9907;42.676;26.348;2022-11-25T05:17:32;2.87;;;2.30;;
19525;SDS011;9907;42.676;26.348;2022-11-25T05:19:58;2.40;;;2.20;;
19525;SDS011;9907;42.676;26.348;2022-11-25T05:22:25;2.50;;;2.30;;
19525;SDS011;9907;42.676;26.348;2022-11-25T05:24:52;2.80;;;2.50;;
19525;SDS011;9907;42.676;26.348;2022-11-25T05:27:18;2.33;;;2.10;;
19525;SDS011;9907;42.676;26.348;2022-11-25T05:29:45;2.87;;;2.20;;
19525;SDS011;9907;42.676;26.348;2022-11-25T05:32:10;2.23;;;1.93;;
19525;SDS011;9907;42.676;26.348;2022-11-25T05:34:37;2.50;;;2.30;;
19525;SDS011;9907;42.676;26.348;2022-11-25T05:37:03;2.73;;;2.33;;
19525;SDS011;9907;42.676;26.348;2022-11-25T05:39:29;2.57;;;2.20;;
19525;SDS011;9907;42.676;26.348;2022-11-25T05:41:55;2.27;;;2.07;;
19525;SDS011;9907;42.676;26.348;2022-11-25T05:44:20;2.67;;;2.10;;
19525;SDS011;9907;42.676;26.348;2022-11-25T05:46:46;2.40;;;2.20;;
19525;SDS011;9907;42.676;26.348;2022-11-25T05:49:13;2.70;;;2.10;;
19525;SDS011;9907;42.676;26.348;2022-11-25T05:51:39;2.50;;;2.30;;
19525;SDS011;9907;42.676;26.348;2022-11-25T05:54:04;2.40;;;2.20;;
19525;SDS011;9907;42.676;26.348;2022-11-25T05:56:30;3.00;;;2.70;;
19525;SDS011;9907;42.676;26.348;2022-11-25T05:58:57;2.53;;;2.33;;
19525;SDS011;9907;42.676;26.348;2022-11-25T06:01:23;5.13;;;2.97;;
19525;SDS011;9907;42.676;26.348;2022-11-25T06:03:49;2.30;;;2.10;;
19525;SDS011;9907;42.676;26.348;2022-11-25T06:06:14;2.40;;;2.20;;
19525;SDS011;9907;42.676;26.348;2022-11-25T06:08:40;2.90;;;2.20;;
19525;SDS011;9907;42.676;26.348;2022-11-25T06:11:10;2.60;;;2.40;;
19525;SDS011;9907;42.676;26.348;2022-11-25T06:13:38;3.37;;;2.20;;
19525;SDS011;9907;42.676;26.348;2022-11-25T06:16:08;2.97;;;2.50;;
19525;SDS011;9907;42.676;26.348;2022-11-25T06:18:41;3.70;;;2.70;;
19525;SDS011;9907;42.676;26.348;2022-11-25T06:21:07;2.63;;;2.10;;
19525;SDS011;9907;42.676;26.348;2022-11-25T06:23:33;2.27;;;1.90;;
19525;SDS011;9907;42.676;26.348;2022-11-25T06:28:34;2.30;;;2.10;;
19525;SDS011;9907;42.676;26.348;2022-11-25T06:31:03;2.20;;;2.00;;
19525;SDS011;9907;42.676;26.348;2022-11-25T06:33:33;3.97;;;2.10;;
19525;SDS011;9907;42.676;26.348;2022-11-25T06:36:00;2.30;;;2.10;;
19525;SDS011;9907;42.676;26.348;2022-11-25T06:38:26;2.13;;;1.90;;
19525;SDS011;9907;42.676;26.348;2022-11-25T06:40:52;3.17;;;2.63;;
19525;SDS011;9907;42.676;26.348;2022-11-25T06:43:18;2.83;;;2.13;;
19525;SDS011;9907;42.676;26.348;2022-11-25T06:45:43;3.60;;;2.30;;
19525;SDS011;9907;42.676;26.348;2022-11-25T06:48:08;4.53;;;2.80;;
19525;SDS011;9907;42.676;26.348;2022-11-25T06:50:34;3.10;;;2.80;;
19525;SDS011;9907;42.676;26.348;2022-11-25T06:53:00;2.67;;;2.47;;
19525;SDS011;9907;42.676;26.348;2022-11-25T06:55:26;2.97;;;2.53;;
19525;SDS011;9907;42.676;26.348;2022-11-25T06:57:51;2.53;;;2.30;;
19525;SDS011;9907;42.676;26.348;2022-11-25T07:00:17;3.47;;;2.93;;
19525;SDS011;9907;42.676;26.348;2022-11-25T07:02:43;4.03;;;2.50;;
19525;SDS011;9907;42.676;26.348;2022-11-25T07:05:08;2.43;;;2.20;;
19525;SDS011;9907;42.676;26.348;2022-11-25T07:07:34;2.73;;;2.20;;
19525;SDS011;9907;42.676;26.348;2022-11-25T07:09:59;2.53;;;2.33;;
19525;SDS011;9907;42.676;26.348;2022-11-25T07:12:25;4.63;;;2.53;;
19525;SDS011;9907;42.676;26.348;2022-11-25T07:14:50;2.77;;;2.47;;
19525;SDS011;9907;42.676;26.348;2022-11-25T07:17:16;2.87;;;2.47;;
19525;SDS011;9907;42.676;26.348;2022-11-25T07:19:41;7.17;;;3.37;;
19525;SDS011;9907;42.676;26.348;2022-11-25T07:22:09;8.10;;;4.83;;
19525;SDS011;9907;42.676;26.348;2022-11-25T07:24:34;4.47;;;3.13;;
19525;SDS011;9907;42.676;26.348;2022-11-25T07:27:00;3.13;;;2.90;;
19525;SDS011;9907;42.676;26.348;2022-11-25T07:29:25;3.10;;;2.83;;
19525;SDS011;9907;42.676;26.348;2022-11-25T07:31:51;2.60;;;2.23;;
19525;SDS011;9907;42.676;26.348;2022-11-25T07:34:18;2.87;;;2.67;;
19525;SDS011;9907;42.676;26.348;2022-11-25T07:36:45;2.40;;;2.20;;
19525;SDS011;9907;42.676;26.348;2022-11-25T07:39:21;3.50;;;2.40;;
19525;SDS011;9907;42.676;26.348;2022-11-25T07:41:51;2.67;;;2.47;;
19525;SDS011;9907;42.676;26.348;2022-11-25T07:44:18;3.63;;;2.80;;
19525;SDS011;9907;42.676;26.348;2022-11-25T07:46:45;3.40;;;2.70;;
19525;SDS011;9907;42.676;26.348;2022-11-25T07:49:17;2.77;;;2.47;;
19525;SDS011;9907;42.676;26.348;2022-11-25T07:51:48;4.97;;;2.73;;
19525;SDS011;9907;42.676;26.348;2022-11-25T07:54:17;4.17;;;2.87;;
19525;SDS011;9907;42.676;26.348;2022-11-25T07:56:42;12.27;;;6.03;;
19525;SDS011;9907;42.676;26.348;2022-11-25T07:59:14;10.53;;;5.13;;
19525;SDS011;9907;42.676;26.348;2022-11-25T08:01:41;4.27;;;3.40;;
19525;SDS011;9907;42.676;26.348;2022-11-25T08:04:08;8.10;;;5.23;;
19525;SDS011;9907;42.676;26.348;2022-11-25T08:06:38;5.03;;;3.20;;
19525;SDS011;9907;42.676;26.348;2022-11-25T08:09:07;3.23;;;2.67;;
19525;SDS011;9907;42.676;26.348;2022-11-25T08:11:34;4.27;;;2.40;;
19525;SDS011;9907;42.676;26.348;2022-11-25T08:14:00;4.30;;;2.43;;
19525;SDS011;9907;42.676;26.348;2022-11-25T08:16:26;3.83;;;2.70;;
19525;SDS011;9907;42.676;26.348;2022-11-25T08:18:55;3.83;;;3.10;;
19525;SDS011;9907;42.676;26.348;2022-11-25T08:21:22;2.87;;;2.50;;
19525;SDS011;9907;42.676;26.348;2022-11-25T08:23:48;4.03;;;3.20;;
19525;SDS011;9907;42.676;26.348;2022-11-25T08:26:20;3.80;;;2.83;;
19525;SDS011;9907;42.676;26.348;2022-11-25T08:28:46;5.07;;;2.97;;
19525;SDS011;9907;42.676;26.348;2022-11-25T08:31:13;3.43;;;2.80;;
19525;SDS011;9907;42.676;26.348;2022-11-25T08:33:43;5.37;;;3.20;;
19525;SDS011;9907;42.676;26.348;2022-11-25T08:36:10;2.77;;;2.30;;
19525;SDS011;9907;42.676;26.348;2022-11-25T08:38:36;2.53;;;2.33;;
19525;SDS011;9907;42.676;26.348;2022-11-25T08:41:03;2.87;;;2.60;;
19525;SDS011;9907;42.676;26.348;2022-11-25T08:43:33;3.80;;;2.83;;
19525;SDS011;9907;42.676;26.348;2022-11-25T08:45:59;2.53;;;2.30;;
19525;SDS011;9907;42.676;26.348;2022-11-25T08:48:24;2.67;;;2.33;;
19525;SDS011;9907;42.676;26.348;2022-11-25T08:50:51;3.07;;;2.37;;
19525;SDS011;9907;42.676;26.348;2022-11-25T08:53:19;3.73;;;2.97;;
19525;SDS011;9907;42.676;26.348;2022-11-25T08:55:46;3.03;;;2.70;;
19525;SDS011;9907;42.676;26.348;2022-11-25T08:58:12;2.60;;;2.23;;
19525;SDS011;9907;42.676;26.348;2022-11-25T09:00:40;5.40;;;3.27;;
19525;SDS011;9907;42.676;26.348;2022-11-25T09:03:07;3.27;;;2.70;;
19525;SDS011;9907;42.676;26.348;2022-11-25T09:05:34;3.03;;;2.43;;
19525;SDS011;9907;42.676;26.348;2022-11-25T09:08:02;2.90;;;2.70;;
19525;SDS011;9907;42.676;26.348;2022-11-25T09:10:29;3.10;;;2.13;;
19525;SDS011;9907;42.676;26.348;2022-11-25T09:12:55;2.93;;;2.50;;
19525;SDS011;9907;42.676;26.348;2022-11-25T09:15:20;3.80;;;2.80;;
19525;SDS011;9907;42.676;26.348;2022-11-25T09:17:45;5.37;;;2.77;;
19525;SDS011;9907;42.676;26.348;2022-11-25T09:20:11;3.40;;;2.90;;
19525;SDS011;9907;42.676;26.348;2022-11-25T09:22:37;2.73;;;2.47;;
19525;SDS011;9907;42.676;26.348;2022-11-25T09:25:02;4.83;;;2.60;;
19525;SDS011;9907;42.676;26.348;2022-11-25T09:27:29;8.17;;;2.80;;
19525;SDS011;9907;42.676;26.348;2022-11-25T09:29:55;2.73;;;2.53;;
19525;SDS011;9907;42.676;26.348;2022-11-25T09:32:20;3.73;;;3.10;;
19525;SDS011;9907;42.676;26.348;2022-11-25T09:34:46;4.40;;;2.53;;
19525;SDS011;9907;42.676;26.348;2022-11-25T09:37:11;3.00;;;2.80;;
19525;SDS011;9907;42.676;26.348;2022-11-25T09:39:37;2.90;;;2.57;;
19525;SDS011;9907;42.676;26.348;2022-11-25T09:42:13;4.03;;;2.83;;
19525;SDS011;9907;42.676;26.348;2022-11-25T09:56:43;3.30;;;3.00;;
19525;SDS011;9907;42.676;26.348;2022-11-25T09:59:30;4.43;;;2.80;;
19525;SDS011;9907;42.676;26.348;2022-11-25T10:02:09;3.50;;;3.00;;
19525;SDS011;9907;42.676;26.348;2022-11-25T10:04:42;2.97;;;2.67;;
19525;SDS011;9907;42.676;26.348;2022-11-25T10:07:17;2.97;;;2.60;;
19525;SDS011;9907;42.676;26.348;2022-11-25T10:09:52;2.70;;;2.50;;
19525;SDS011;9907;42.676;26.348;2022-11-25T10:12:28;2.73;;;2.53;;
19525;SDS011;9907;42.676;26.348;2022-11-25T10:14:59;3.50;;;3.20;;
19525;SDS011;9907;42.676;26.348;2022-11-25T10:22:51;4.27;;;3.00;;
19525;SDS011;9907;42.676;26.348;2022-11-25T10:25:23;5.40;;;3.20;;
19525;SDS011;9907;42.676;26.348;2022-11-25T10:27:54;3.07;;;2.77;;
19525;SDS011;9907;42.676;26.348;2022-11-25T10:30:26;4.23;;;3.30;;
19525;SDS011;9907;42.676;26.348;2022-11-25T10:35:40;3.27;;;2.97;;
19525;SDS011;9907;42.676;26.348;2022-11-25T10:41:03;3.50;;;3.20;;
19525;SDS011;9907;42.676;26.348;2022-11-25T10:43:30;3.63;;;2.60;;
19525;SDS011;9907;42.676;26.348;2022-11-25T10:48:53;4.17;;;3.27;;
19525;SDS011;9907;42.676;26.348;2022-11-25T10:51:37;4.10;;;3.43;;
19525;SDS011;9907;42.676;26.348;2022-11-25T10:54:11;4.83;;;3.40;;
19525;SDS011;9907;42.676;26.348;2022-11-25T10:57:02;3.23;;;2.70;;
19525;SDS011;9907;42.676;26.348;2022-11-25T10:59:40;3.43;;;2.80;;
19525;SDS011;9907;42.676;26.348;2022-11-25T11:07:14;3.67;;;3.00;;
19525;SDS011;9907;42.676;26.348;2022-11-25T11:09:40;3.50;;;3.20;;
19525;SDS011;9907;42.676;26.348;2022-11-25T11:12:43;4.60;;;3.10;;
19525;SDS011;9907;42.676;26.348;2022-11-25T11:15:14;3.77;;;3.40;;
19525;SDS011;9907;42.676;26.348;2022-11-25T11:17:44;5.80;;;4.13;;
19525;SDS011;9907;42.676;26.348;2022-11-25T11:20:14;3.37;;;3.03;;
19525;SDS011;9907;42.676;26.348;2022-11-25T11:22:57;5.10;;;3.57;;
19525;SDS011;9907;42.676;26.348;2022-11-25T11:25:33;4.13;;;3.27;;
19525;SDS011;9907;42.676;26.348;2022-11-25T11:28:00;3.87;;;3.33;;
19525;SDS011;9907;42.676;26.348;2022-11-25T11:30:28;6.77;;;4.60;;
19525;SDS011;9907;42.676;26.348;2022-11-25T11:38:24;3.83;;;3.43;;
19525;SDS011;9907;42.676;26.348;2022-11-25T11:41:17;3.97;;;3.30;;
19525;SDS011;9907;42.676;26.348;2022-11-25T11:44:17;9.53;;;6.07;;
19525;SDS011;9907;42.676;26.348;2022-11-25T11:47:09;5.43;;;4.17;;
19525;SDS011;9907;42.676;26.348;2022-11-25T11:50:02;3.57;;;3.20;;
19525;SDS011;9907;42.676;26.348;2022-11-25T12:03:24;3.47;;;3.17;;
19525;SDS011;9907;42.676;26.348;2022-11-25T12:05:52;4.30;;;3.90;;
19525;SDS011;9907;42.676;26.348;2022-11-25T12:10:57;5.33;;;4.57;;
19525;SDS011;9907;42.676;26.348;2022-11-25T12:13:34;3.20;;;2.90;;
19525;SDS011;9907;42.676;26.348;2022-11-25T12:21:06;3.63;;;3.30;;
19525;SDS011;9907;42.676;26.348;2022-11-25T12:26:29;3.30;;;2.90;;
19525;SDS011;9907;42.676;26.348;2022-11-25T12:29:07;3.57;;;3.13;;
19525;SDS011;9907;42.676;26.348;2022-11-25T12:31:38;3.10;;;2.80;;
19525;SDS011;9907;42.676;26.348;2022-11-25T12:34:12;4.77;;;3.40;;
19525;SDS011;9907;42.676;26.348;2022-11-25T12:36:45;3.70;;;3.10;;
19525;SDS011;9907;42.676;26.348;2022-11-25T12:46:49;3.20;;;2.90;;
19525;SDS011;9907;42.676;26.348;2022-11-25T12:49:21;3.53;;;3.23;;
19525;SDS011;9907;42.676;26.348;2022-11-25T13:00:22;4.13;;;3.17;;
19525;SDS011;9907;42.676;26.348;2022-11-25T13:02:34;4.03;;;3.63;;
19525;SDS011;9907;42.676;26.348;2022-11-25T13:05:07;4.07;;;3.67;;
19525;SDS011;9907;42.676;26.348;2022-11-25T13:08:02;3.87;;;3.00;;
19525;SDS011;9907;42.676;26.348;2022-11-25T13:15:41;4.53;;;3.50;;
19525;SDS011;9907;42.676;26.348;2022-11-25T13:18:10;4.23;;;3.40;;
19525;SDS011;9907;42.676;26.348;2022-11-25T13:20:47;4.70;;;3.60;;
19525;SDS011;9907;42.676;26.348;2022-11-25T13:25:43;6.57;;;4.83;;
19525;SDS011;9907;42.676;26.348;2022-11-25T13:28:30;4.57;;;3.70;;
19525;SDS011;9907;42.676;26.348;2022-11-25T13:36:14;3.87;;;3.47;;
19525;SDS011;9907;42.676;26.348;2022-11-25T13:43:51;3.40;;;3.10;;
19525;SDS011;9907;42.676;26.348;2022-11-25T13:49:06;3.93;;;3.53;;
19525;SDS011;9907;42.676;26.348;2022-11-25T13:51:50;3.87;;;3.53;;
19525;SDS011;9907;42.676;26.348;2022-11-25T13:54:18;4.57;;;3.50;;
19525;SDS011;9907;42.676;26.348;2022-11-25T14:00:00;4.30;;;3.53;;
19525;SDS011;9907;42.676;26.348;2022-11-25T14:02:34;4.67;;;3.47;;
19525;SDS011;9907;42.676;26.348;2022-11-25T14:15:55;6.80;;;4.40;;
19525;SDS011;9907;42.676;26.348;2022-11-25T14:26:26;4.27;;;3.70;;
19525;SDS011;9907;42.676;26.348;2022-11-25T14:29:05;4.67;;;4.20;;
19525;SDS011;9907;42.676;26.348;2022-11-25T14:31:39;5.43;;;3.83;;
19525;SDS011;9907;42.676;26.348;2022-11-25T14:34:14;6.80;;;4.63;;
19525;SDS011;9907;42.676;26.348;2022-11-25T14:36:48;8.60;;;5.17;;
19525;SDS011;9907;42.676;26.348;2022-11-25T14:39:41;6.93;;;4.57;;
19525;SDS011;9907;42.676;26.348;2022-11-25T14:42:17;4.37;;;3.87;;
19525;SDS011;9907;42.676;26.348;2022-11-25T14:44:48;4.17;;;3.70;;
19525;SDS011;9907;42.676;26.348;2022-11-25T14:47:23;5.17;;;3.97;;
19525;SDS011;9907;42.676;26.348;2022-11-25T14:49:50;4.13;;;3.47;;
19525;SDS011;9907;42.676;26.348;2022-11-25T14:52:22;4.07;;;3.60;;
19525;SDS011;9907;42.676;26.348;2022-11-25T14:54:50;3.73;;;3.30;;
19525;SDS011;9907;42.676;26.348;2022-11-25T14:57:25;4.10;;;3.70;;
19525;SDS011;9907;42.676;26.348;2022-11-25T14:59:58;4.23;;;3.83;;
19525;SDS011;9907;42.676;26.348;2022-11-25T15:02:31;7.20;;;4.53;;
19525;SDS011;9907;42.676;26.348;2022-11-25T15:07:55;5.03;;;3.83;;
19525;SDS011;9907;42.676;26.348;2022-11-25T15:11:11;5.80;;;4.20;;
19525;SDS011;9907;42.676;26.348;2022-11-25T15:15:51;6.53;;;3.73;;
19525;SDS011;9907;42.676;26.348;2022-11-25T15:18:20;4.43;;;3.70;;
19525;SDS011;9907;42.676;26.348;2022-11-25T15:20:49;5.03;;;3.87;;
19525;SDS011;9907;42.676;26.348;2022-11-25T15:23:22;5.50;;;4.07;;
19525;SDS011;9907;42.676;26.348;2022-11-25T15:25:52;7.90;;;5.00;;
19525;SDS011;9907;42.676;26.348;2022-11-25T15:28:18;5.50;;;4.93;;
19525;SDS011;9907;42.676;26.348;2022-11-25T15:30:54;6.20;;;4.93;;
19525;SDS011;9907;42.676;26.348;2022-11-25T15:33:22;13.00;;;10.43;;
19525;SDS011;9907;42.676;26.348;2022-11-25T15:35:49;10.20;;;5.97;;
19525;SDS011;9907;42.676;26.348;2022-11-25T15:38:19;7.80;;;6.20;;
19525;SDS011;9907;42.676;26.348;2022-11-25T15:40:58;9.37;;;6.57;;
19525;SDS011;9907;42.676;26.348;2022-11-25T15:43:24;7.60;;;5.73;;
19525;SDS011;9907;42.676;26.348;2022-11-25T15:45:54;8.03;;;6.23;;
19525;SDS011;9907;42.676;26.348;2022-11-25T15:48:31;6.50;;;5.00;;
19525;SDS011;9907;42.676;26.348;2022-11-25T15:51:31;8.77;;;5.50;;
19525;SDS011;9907;42.676;26.348;2022-11-25T15:54:05;6.83;;;5.63;;
19525;SDS011;9907;42.676;26.348;2022-11-25T15:56:47;7.07;;;5.43;;
19525;SDS011;9907;42.676;26.348;2022-11-25T16:02:33;7.47;;;5.20;;
19525;SDS011;9907;42.676;26.348;2022-11-25T16:10:17;6.57;;;5.60;;
19525;SDS011;9907;42.676;26.348;2022-11-25T16:21:04;4.57;;;4.10;;
19525;SDS011;9907;42.676;26.348;2022-11-25T16:23:37;4.67;;;4.07;;
19525;SDS011;9907;42.676;26.348;2022-11-25T16:26:12;4.90;;;3.57;;
19525;SDS011;9907;42.676;26.348;2022-11-25T16:28:41;6.20;;;5.43;;
19525;SDS011;9907;42.676;26.348;2022-11-25T16:31:14;6.67;;;4.20;;
19525;SDS011;9907;42.676;26.348;2022-11-25T16:33:40;4.30;;;3.90;;
19525;SDS011;9907;42.676;26.348;2022-11-25T16:36:06;4.57;;;3.33;;
19525;SDS011;9907;42.676;26.348;2022-11-25T16:38:32;6.10;;;4.07;;
19525;SDS011;9907;42.676;26.348;2022-11-25T16:40:58;4.57;;;3.40;;
19525;SDS011;9907;42.676;26.348;2022-11-25T16:43:25;4.20;;;3.83;;
19525;SDS011;9907;42.676;26.348;2022-11-25T16:45:52;6.40;;;4.50;;
19525;SDS011;9907;42.676;26.348;2022-11-25T16:48:20;5.20;;;4.17;;
19525;SDS011;9907;42.676;26.348;2022-11-25T16:50:47;5.93;;;4.10;;
19525;SDS011;9907;42.676;26.348;2022-11-25T16:53:13;5.80;;;3.83;;
19525;SDS011;9907;42.676;26.348;2022-11-25T16:55:41;3.83;;;3.43;;
19525;SDS011;9907;42.676;26.348;2022-11-25T16:58:15;4.30;;;3.90;;
19525;SDS011;9907;42.676;26.348;2022-11-25T17:00:48;4.27;;;3.87;;
19525;SDS011;9907;42.676;26.348;2022-11-25T17:03:15;5.13;;;4.10;;
19525;SDS011;9907;42.676;26.348;2022-11-25T17:05:42;5.33;;;4.30;;
19525;SDS011;9907;42.676;26.348;2022-11-25T17:08:07;4.73;;;4.27;;
19525;SDS011;9907;42.676;26.348;2022-11-25T17:10:33;6.07;;;4.50;;
19525;SDS011;9907;42.676;26.348;2022-11-25T17:12:59;9.43;;;5.43;;
19525;SDS011;9907;42.676;26.348;2022-11-25T17:15:32;5.13;;;4.40;;
19525;SDS011;9907;42.676;26.348;2022-11-25T17:18:00;11.73;;;6.47;;
19525;SDS011;9907;42.676;26.348;2022-11-25T17:20:27;17.30;;;8.77;;
19525;SDS011;9907;42.676;26.348;2022-11-25T17:22:53;5.10;;;4.13;;
19525;SDS011;9907;42.676;26.348;2022-11-25T17:25:19;6.90;;;5.27;;
19525;SDS011;9907;42.676;26.348;2022-11-25T17:27:46;10.30;;;6.40;;
19525;SDS011;9907;42.676;26.348;2022-11-25T17:30:23;5.47;;;4.30;;
19525;SDS011;9907;42.676;26.348;2022-11-25T17:33:03;11.33;;;6.00;;
19525;SDS011;9907;42.676;26.348;2022-11-25T17:35:31;6.00;;;4.20;;